Time;durP1;ratioP1;P1;durP2;ratioP2;P2;SDS_P1;SDS_P2;PMS_P1;PMS_P2;Temp;Humidity;BMP_temperature;BMP_pressure;BME280_temperature;BME280_humidity;BME280_pressure;Samples;Min_cycle;Max_cycle;Signal;HPM_P1;HPM_P2
2023/04/06 00:01:21;;;;;;;7.35;4.03;;;;;;;-1.10;75.37;98859.19;4469681;32;20398;-67
2023/04/06 00:03:48;;;;;;;6.18;3.65;;;;;;;-1.21;76.47;98853.62;4469607;32;20145;-67
2023/04/06 00:06:15;;;;;;;7.85;3.25;;;;;;;-1.24;74.50;98857.19;4469345;32;20446;-67
2023/04/06 00:08:44;;;;;;;7.70;3.90;;;;;;;-1.32;74.04;98854.06;4469675;32;20426;-67
2023/04/06 00:11:11;;;;;;;8.00;3.92;;;;;;;-1.34;73.64;98859.25;4469461;32;20160;-67
2023/04/06 00:13:39;;;;;;;10.35;3.75;;;;;;;-1.26;72.54;98851.22;4468108;32;20119;-67
2023/04/06 00:16:06;;;;;;;5.03;3.40;;;;;;;-1.32;72.29;98846.34;4469505;32;20097;-67
2023/04/06 00:18:34;;;;;;;6.75;3.90;;;;;;;-1.38;72.66;98844.84;4469555;32;20124;-67
2023/04/06 00:21:01;;;;;;;8.48;3.60;;;;;;;-1.46;72.21;98847.72;4469168;32;20096;-67
2023/04/06 00:23:28;;;;;;;6.87;3.90;;;;;;;-1.51;75.47;98846.25;4469505;32;20577;-67
2023/04/06 00:25:55;;;;;;;8.88;3.67;;;;;;;-1.54;76.04;98844.63;4469266;32;20153;-67
2023/04/06 00:28:25;;;;;;;6.50;3.75;;;;;;;-1.51;75.00;98846.25;4469557;32;20100;-67
2023/04/06 00:30:55;;;;;;;5.60;3.28;;;;;;;-1.50;74.55;98843.63;4469366;32;20084;-67
2023/04/06 00:33:23;;;;;;;9.27;3.47;;;;;;;-1.49;73.13;98839.31;4469311;32;20504;-67
2023/04/06 00:35:50;;;;;;;12.65;4.43;;;;;;;-1.55;74.62;98842.09;4469208;32;20135;-67
2023/04/06 00:38:18;;;;;;;9.57;4.25;;;;;;;-1.54;73.81;98830.94;4469311;32;20454;-67
2023/04/06 00:40:45;;;;;;;11.23;4.18;;;;;;;-1.59;73.79;98827.69;4469626;32;20104;-67
2023/04/06 00:43:13;;;;;;;7.43;3.72;;;;;;;-1.57;73.91;98825.94;4469184;32;20096;-67
2023/04/06 00:45:41;;;;;;;12.73;4.43;;;;;;;-1.54;72.87;98828.38;4469332;32;20176;-67
2023/04/06 00:48:08;;;;;;;7.45;3.28;;;;;;;-1.61;73.13;98820.88;4469098;32;20085;-67
2023/04/06 00:50:36;;;;;;;7.25;3.72;;;;;;;-1.63;73.85;98821.84;4469153;32;20165;-67
2023/04/06 00:53:03;;;;;;;12.37;3.83;;;;;;;-1.57;72.68;98819.03;4468971;32;20093;-67
2023/04/06 00:55:31;;;;;;;10.00;3.90;;;;;;;-1.62;72.83;98823.50;4468934;32;20548;-67
2023/04/06 00:58:00;;;;;;;12.05;4.12;;;;;;;-1.69;73.14;98820.34;4469220;32;20438;-67
2023/04/06 01:00:29;;;;;;;8.93;4.22;;;;;;;-1.70;73.30;98816.09;4469085;32;20135;-67
2023/04/06 01:02:57;;;;;;;8.30;4.32;;;;;;;-1.71;73.27;98816.16;4469203;32;20159;-67
2023/04/06 01:05:26;;;;;;;9.55;4.00;;;;;;;-1.67;72.85;98812.59;4467626;32;20347;-67
2023/04/06 01:07:54;;;;;;;8.65;3.95;;;;;;;-1.66;72.51;98821.97;4468995;32;20139;-67
2023/04/06 01:10:26;;;;;;;7.25;3.60;;;;;;;-1.66;72.66;98817.66;4469117;32;20097;-67
2023/04/06 01:12:55;;;;;;;12.27;3.80;;;;;;;-1.70;72.86;98820.41;4469031;32;20092;-67
2023/04/06 01:15:24;;;;;;;13.23;4.53;;;;;;;-1.68;72.89;98823.75;4469061;32;20176;-67
2023/04/06 01:17:51;;;;;;;9.27;4.10;;;;;;;-1.68;72.68;98819.47;4467587;32;20108;-67
2023/04/06 01:20:18;;;;;;;7.72;3.95;;;;;;;-1.71;72.92;98818.72;4468796;32;20466;-67
2023/04/06 01:22:46;;;;;;;11.23;4.72;;;;;;;-1.71;72.84;98821.28;4468837;32;20168;-67
2023/04/06 01:25:13;;;;;;;13.62;4.62;;;;;;;-1.66;72.40;98822.81;4468806;32;20529;-67
2023/04/06 01:27:42;;;;;;;8.68;4.55;;;;;;;-1.63;72.38;98820.13;4468724;32;20485;-67
2023/04/06 01:30:13;;;;;;;11.38;5.30;;;;;;;-1.71;72.84;98822.16;4468786;32;20085;-67
2023/04/06 01:32:40;;;;;;;9.00;4.12;;;;;;;-1.74;73.20;98813.72;4468779;32;20153;-67
2023/04/06 01:35:08;;;;;;;8.05;4.50;;;;;;;-1.72;73.33;98815.34;4468665;32;20120;-67
2023/04/06 01:37:37;;;;;;;7.87;3.67;;;;;;;-1.72;73.37;98812.78;4468652;32;20109;-67
2023/04/06 01:40:05;;;;;;;11.15;4.72;;;;;;;-1.68;73.34;98819.47;4468711;32;20216;-67
2023/04/06 01:42:34;;;;;;;9.25;4.95;;;;;;;-1.69;73.62;98811.81;4468589;32;20112;-67
2023/04/06 01:45:01;;;;;;;10.18;5.22;;;;;;;-1.80;74.59;98814.81;4468441;32;20141;-67
2023/04/06 01:47:29;;;;;;;8.98;4.22;;;;;;;-1.83;75.06;98807.22;4468112;32;20108;-67
2023/04/06 01:49:56;;;;;;;10.23;4.53;;;;;;;-1.77;75.07;98806.97;4467341;32;20178;-67
2023/04/06 01:52:24;;;;;;;9.57;4.43;;;;;;;-1.72;74.74;98806.81;4468014;32;20193;-67
2023/04/06 01:54:52;;;;;;;7.95;4.43;;;;;;;-1.76;74.71;98803.50;4468298;32;20468;-67
2023/04/06 01:57:20;;;;;;;11.27;4.97;;;;;;;-1.71;74.46;98804.19;4468421;32;20156;-67
2023/04/06 01:59:48;;;;;;;7.90;4.18;;;;;;;-1.79;75.03;98799.34;4468411;32;20101;-67
2023/04/06 02:02:16;;;;;;;7.18;4.70;;;;;;;-1.78;75.26;98807.88;4468276;32;20096;-67
2023/04/06 02:04:45;;;;;;;8.02;4.85;;;;;;;-1.82;75.41;98798.59;4467971;32;20144;-67
2023/04/06 02:07:12;;;;;;;12.68;4.87;;;;;;;-1.83;75.17;98795.22;4467805;32;20165;-67
2023/04/06 02:09:40;;;;;;;10.63;4.37;;;;;;;-1.79;74.76;98795.91;4468275;32;20168;-67
2023/04/06 02:12:08;;;;;;;11.50;4.50;;;;;;;-1.77;74.56;98794.16;4468940;32;20126;-67
2023/04/06 02:14:35;;;;;;;7.37;3.92;;;;;;;-1.74;74.14;98804.28;4470156;32;20455;-67
2023/04/06 02:17:03;;;;;;;9.60;4.75;;;;;;;-1.73;74.25;98799.97;4470360;32;20132;-67
2023/04/06 02:19:32;;;;;;;8.65;4.22;;;;;;;-1.72;74.11;98794.78;4470220;32;20088;-67
2023/04/06 02:21:59;;;;;;;10.88;4.45;;;;;;;-1.76;74.29;98788.09;4470313;32;20111;-67
2023/04/06 02:24:26;;;;;;;12.43;5.28;;;;;;;-1.76;73.92;98784.69;4470256;32;20115;-67
2023/04/06 02:26:53;;;;;;;11.05;4.68;;;;;;;-1.80;73.97;98779.69;4470573;32;20152;-67
2023/04/06 02:29:20;;;;;;;10.40;4.37;;;;;;;-1.79;73.69;98776.22;4469976;32;20096;-67
2023/04/06 02:31:48;;;;;;;7.43;4.45;;;;;;;-1.73;73.18;98785.41;4470506;32;20474;-67
2023/04/06 02:34:17;;;;;;;10.98;4.53;;;;;;;-1.70;73.08;98781.87;4470359;32;20154;-67
2023/04/06 02:36:45;;;;;;;12.77;4.47;;;;;;;-1.71;72.94;98785.34;4470274;32;20101;-66
2023/04/06 02:39:14;;;;;;;8.45;4.07;;;;;;;-1.72;72.92;98791.41;4470240;32;20164;-67
2023/04/06 02:41:44;;;;;;;10.63;4.72;;;;;;;-1.70;73.10;98779.31;4470073;32;20452;-67
2023/04/06 02:44:12;;;;;;;8.13;3.97;;;;;;;-1.72;73.12;98781.94;4470232;32;20113;-66
2023/04/06 02:46:40;;;;;;;10.90;4.72;;;;;;;-1.76;73.14;98770.12;4469993;32;20100;-66
2023/04/06 02:49:07;;;;;;;9.02;4.12;;;;;;;-1.76;73.35;98766.72;4470218;32;20127;-67
2023/04/06 02:51:35;;;;;;;7.00;4.00;;;;;;;-1.77;73.65;98770.19;4470218;32;20605;-67
2023/04/06 02:54:04;;;;;;;10.80;4.37;;;;;;;-1.78;73.92;98771.91;4470019;32;20085;-67
2023/04/06 02:56:31;;;;;;;8.98;4.25;;;;;;;-1.84;74.22;98772.16;4469980;32;20101;-67
2023/04/06 02:58:58;;;;;;;12.70;4.70;;;;;;;-1.84;74.07;98767.84;4469941;32;20401;-67
2023/04/06 03:01:27;;;;;;;16.48;4.65;;;;;;;-1.93;74.87;98765.63;4470211;32;20123;-66
2023/04/06 03:03:55;;;;;;;11.48;4.85;;;;;;;-1.92;74.99;98769.03;4469747;32;20101;-67
2023/04/06 03:06:22;;;;;;;20.17;5.47;;;;;;;-2.03;75.63;98759.19;4470111;32;20490;-67
2023/04/06 03:08:52;;;;;;;8.38;4.37;;;;;;;-1.98;75.73;98768.38;4470134;32;20081;-66
2023/04/06 03:11:20;;;;;;;10.43;5.45;;;;;;;-1.97;76.05;98767.50;4470022;32;20569;-67
2023/04/06 03:13:48;;;;;;;8.80;4.57;;;;;;;-2.07;76.42;98765.34;4469930;32;20097;-67
2023/04/06 03:16:16;;;;;;;12.15;4.53;;;;;;;-2.03;75.97;98766.87;4469843;32;20158;-67
2023/04/06 03:18:47;;;;;;;7.78;3.72;;;;;;;-1.96;75.30;98768.31;4469782;32;21019;-67
2023/04/06 03:21:19;;;;;;;5.75;3.65;;;;;;;-2.00;75.70;98770.19;4469733;32;20113;-67
2023/04/06 03:23:51;;;;;;;11.10;4.62;;;;;;;-1.97;75.91;98764.06;4469767;32;20167;-67
2023/04/06 03:26:18;;;;;;;15.05;4.25;;;;;;;-1.99;76.04;98769.28;4470101;32;20119;-67
2023/04/06 03:28:45;;;;;;;7.93;4.22;;;;;;;-2.02;76.26;98761.69;4469830;32;20101;-67
2023/04/06 03:31:13;;;;;;;9.15;4.68;;;;;;;-2.07;76.48;98768.75;4469960;32;20536;-67
2023/04/06 03:33:40;;;;;;;8.15;4.18;;;;;;;-2.05;76.64;98758.41;4470079;32;20101;-66
2023/04/06 03:36:08;;;;;;;9.15;5.22;;;;;;;-2.12;77.16;98764.66;4469712;32;20101;-66
2023/04/06 03:38:36;;;;;;;9.20;4.45;;;;;;;-2.18;77.46;98768.28;4469819;32;20101;-67
2023/04/06 03:41:07;;;;;;;11.85;4.18;;;;;;;-2.19;77.89;98769.19;4470056;32;20637;-67
2023/04/06 03:43:35;;;;;;;7.05;4.07;;;;;;;-2.24;78.50;98768.50;4469672;32;20139;-67
2023/04/06 03:46:02;;;;;;;13.38;5.32;;;;;;;-2.26;79.26;98763.44;4468356;32;20140;-67
2023/04/06 03:48:29;;;;;;;10.25;4.72;;;;;;;-2.30;79.68;98763.63;4469618;32;20093;-66
2023/04/06 03:51:00;;;;;;;11.38;5.18;;;;;;;-2.30;79.78;98768.75;4469804;32;20111;-67
2023/04/06 03:53:27;;;;;;;7.78;4.12;;;;;;;-2.30;79.71;98773.87;4469598;32;20123;-66
2023/04/06 03:55:54;;;;;;;8.45;4.43;;;;;;;-2.25;79.42;98766.87;4469632;32;20486;-67
2023/04/06 03:58:21;;;;;;;13.75;5.85;;;;;;;-2.22;78.98;98771.88;4469480;32;20096;-67
2023/04/06 04:00:49;;;;;;;11.23;4.70;;;;;;;-2.21;78.62;98769.25;4469783;32;20511;-67
2023/04/06 04:03:16;;;;;;;9.55;5.35;;;;;;;-2.18;78.48;98763.16;4469493;32;20101;-67
2023/04/06 04:05:43;;;;;;;10.38;4.85;;;;;;;-2.24;78.71;98768.50;4469189;32;20550;-67
2023/04/06 04:08:11;;;;;;;7.55;4.15;;;;;;;-2.24;77.93;98769.38;4469684;32;20092;-67
2023/04/06 04:10:40;;;;;;;11.98;4.90;;;;;;;-2.25;78.61;98756.59;4469599;32;20084;-67
2023/04/06 04:13:08;;;;;;;11.75;4.50;;;;;;;-2.39;79.92;98760.50;4469768;32;20105;-67
2023/04/06 04:15:35;;;;;;;12.80;5.18;;;;;;;-2.47;80.29;98762.50;4468352;32;20127;-67
2023/04/06 04:18:03;;;;;;;6.87;4.40;;;;;;;-2.48;80.63;98760.84;4469504;32;20213;-67
2023/04/06 04:20:30;;;;;;;13.02;4.87;;;;;;;-2.51;80.83;98756.66;4469415;32;20088;-66
2023/04/06 04:22:57;;;;;;;14.20;5.07;;;;;;;-2.49;81.13;98759.16;4469380;32;20454;-67
2023/04/06 04:25:24;;;;;;;8.40;4.45;;;;;;;-2.45;81.38;98760.72;4469440;32;20104;-67
2023/04/06 04:27:52;;;;;;;10.68;5.72;;;;;;;-2.45;81.97;98754.75;4469463;32;20093;-66
2023/04/06 04:30:20;;;;;;;19.65;6.03;;;;;;;-2.50;82.61;98760.91;4469524;32;20096;-67
2023/04/06 04:32:47;;;;;;;18.23;6.20;;;;;;;-2.52;83.30;98761.84;4469619;32;20085;-67
2023/04/06 04:35:18;;;;;;;10.82;5.07;;;;;;;-2.55;83.80;98754.25;4468677;32;20104;-67
2023/04/06 04:37:45;;;;;;;11.50;5.65;;;;;;;-2.56;84.19;98763.69;4469505;32;20476;-66
2023/04/06 04:40:13;;;;;;;18.30;6.53;;;;;;;-2.45;84.45;98757.31;4469464;32;20116;-66
2023/04/06 04:42:40;;;;;;;10.63;4.68;;;;;;;-2.50;84.40;98758.34;4469642;32;20150;-66
2023/04/06 04:45:11;;;;;;;10.80;5.70;;;;;;;-2.45;84.64;98765.00;4469402;32;20086;-66
2023/04/06 04:47:39;;;;;;;12.32;5.25;;;;;;;-2.46;84.90;98760.78;4469252;32;20084;-67
2023/04/06 04:50:06;;;;;;;10.48;5.45;;;;;;;-2.48;85.33;98765.97;4469298;32;20092;-66
2023/04/06 04:52:34;;;;;;;11.85;5.47;;;;;;;-2.48;85.60;98755.72;4467685;32;20505;-67
2023/04/06 04:55:04;;;;;;;16.40;5.47;;;;;;;-2.47;85.90;98759.94;4469189;32;20164;-67
2023/04/06 04:57:31;;;;;;;12.75;5.50;;;;;;;-2.49;86.24;98756.59;4468479;32;20100;-66
2023/04/06 04:59:58;;;;;;;12.90;6.00;;;;;;;-2.43;85.90;98743.53;4469194;31;20100;-66
2023/04/06 05:02:25;;;;;;;8.85;4.12;;;;;;;-2.43;86.12;98746.13;4468903;32;20138;-66
2023/04/06 05:04:53;;;;;;;14.57;6.32;;;;;;;-2.39;86.04;98739.97;4468369;32;20493;-66
2023/04/06 05:07:21;;;;;;;13.32;5.07;;;;;;;-2.38;86.24;98743.37;4481590;32;20458;-66
2023/04/06 05:09:49;;;;;;;11.27;5.90;;;;;;;-2.37;86.34;98737.38;4475306;32;20393;-67
2023/04/06 05:12:17;;;;;;;16.45;6.03;;;;;;;-2.36;85.60;98729.59;4473479;31;20097;-66
2023/04/06 05:14:46;;;;;;;12.73;5.60;;;;;;;-2.25;85.86;98738.63;4462846;32;20116;-67
2023/04/06 05:17:14;;;;;;;12.05;5.95;;;;;;;-2.23;85.79;98732.53;4468387;32;20093;-67
2023/04/06 05:19:41;;;;;;;9.23;5.45;;;;;;;-2.20;85.79;98726.47;4470611;32;20386;-67
2023/04/06 05:22:08;;;;;;;12.23;6.12;;;;;;;-2.20;86.31;98736.72;4472419;31;20119;-67
2023/04/06 05:24:36;;;;;;;12.13;5.72;;;;;;;-2.21;85.62;98741.03;4468958;32;20454;-66
2023/04/06 05:27:04;;;;;;;10.52;5.75;;;;;;;-2.10;85.25;98735.50;4482630;31;20144;-67
2023/04/06 05:29:32;;;;;;;17.35;6.22;;;;;;;-2.01;84.66;98722.28;4468339;32;20093;-67
2023/04/06 05:31:59;;;;;;;15.45;6.62;;;;;;;-1.99;84.41;98730.75;4471311;32;20104;-67
2023/04/06 05:34:26;;;;;;;14.68;6.50;;;;;;;-1.83;83.35;98717.34;4473668;32;20217;-67
2023/04/06 05:36:54;;;;;;;15.80;6.95;;;;;;;-1.69;82.99;98719.38;4465820;32;20128;-67
2023/04/06 05:39:21;;;;;;;11.82;6.78;;;;;;;-1.68;81.89;98727.00;4467621;32;20232;-67
2023/04/06 05:41:49;;;;;;;15.23;7.03;;;;;;;-1.69;82.15;98712.47;4468176;32;20119;-67
2023/04/06 05:44:17;;;;;;;12.95;6.53;;;;;;;-1.65;82.95;98705.47;4482174;32;20104;-67
2023/04/06 05:46:46;;;;;;;14.63;6.45;;;;;;;-1.53;82.57;98706.72;4472836;31;20104;-67
2023/04/06 05:49:13;;;;;;;11.38;6.35;;;;;;;-1.62;82.77;98702.78;4471638;32;20097;-67
2023/04/06 05:51:40;;;;;;;15.18;5.82;;;;;;;-1.51;82.27;98708.34;4476219;32;20123;-67
2023/04/06 05:54:08;;;;;;;13.82;5.12;;;;;;;-1.42;81.04;98702.00;4470660;31;20109;-67
2023/04/06 05:56:35;;;;;;;24.42;6.37;;;;;;;-1.33;80.50;98706.75;4454746;32;20771;-67
2023/04/06 05:59:02;;;;;;;13.65;5.85;;;;;;;-1.29;79.65;98698.00;4453362;32;20709;-67
2023/04/06 06:01:30;;;;;;;9.95;5.22;;;;;;;-1.19;78.48;98702.75;4467059;31;20149;-67
2023/04/06 06:04:00;;;;;;;10.60;5.90;;;;;;;-1.05;77.22;98700.44;4468549;32;20109;-67
2023/04/06 06:06:29;;;;;;;12.35;6.10;;;;;;;-0.80;75.43;98692.50;4468622;32;20190;-67
2023/04/06 06:09:00;;;;;;;11.23;6.37;;;;;;;-0.71;73.52;98698.97;4467486;32;20092;-67
2023/04/06 06:11:28;;;;;;;14.32;5.57;;;;;;;-0.71;71.73;98701.53;4466121;32;20136;-67
2023/04/06 06:13:56;;;;;;;11.55;6.18;;;;;;;-0.61;70.87;98696.81;4465770;32;20108;-67
2023/04/06 06:16:24;;;;;;;16.80;6.65;;;;;;;-0.59;69.57;98697.56;4468510;32;20127;-67
2023/04/06 06:18:52;;;;;;;10.75;5.35;;;;;;;-0.42;68.99;98695.06;4468181;32;20165;-67
2023/04/06 06:21:19;;;;;;;7.43;4.57;;;;;;;-0.11;66.44;98695.41;4465460;32;20818;-67
2023/04/06 06:23:49;;;;;;;13.50;6.00;;;;;;;-0.01;65.64;98691.50;4468329;32;20156;-67
2023/04/06 06:26:17;;;;;;;17.08;6.62;;;;;;;0.12;65.45;98687.44;4465507;32;20134;-67
2023/04/06 06:28:45;;;;;;;10.77;6.15;;;;;;;0.28;63.49;98689.25;4461003;32;20198;-67
2023/04/06 06:31:12;;;;;;;11.35;5.25;;;;;;;0.48;63.24;98685.69;4464476;32;20170;-67
2023/04/06 06:33:42;;;;;;;10.35;5.78;;;;;;;0.61;61.05;98684.19;4465702;32;20113;-67
2023/04/06 06:36:10;;;;;;;9.93;4.95;;;;;;;0.72;60.06;98685.41;4462880;32;20119;-67
2023/04/06 06:38:38;;;;;;;9.52;5.15;;;;;;;0.84;58.93;98682.19;4466452;32;20120;-67
2023/04/06 06:41:08;;;;;;;14.35;6.05;;;;;;;0.79;58.37;98682.44;4466138;32;20131;-67
2023/04/06 06:43:36;;;;;;;11.07;6.28;;;;;;;0.95;58.71;98684.22;4466195;32;20097;-67
2023/04/06 06:46:05;;;;;;;11.75;6.28;;;;;;;1.04;58.91;98689.72;4465487;32;20487;-67
2023/04/06 06:48:33;;;;;;;15.90;5.62;;;;;;;1.02;58.31;98688.16;4465093;32;20159;-67
2023/04/06 06:51:00;;;;;;;13.68;5.93;;;;;;;0.94;58.74;98682.56;4465445;32;20121;-67
2023/04/06 06:53:27;;;;;;;13.50;5.97;;;;;;;1.27;59.26;98676.56;4464765;32;20182;-67
2023/04/06 06:55:55;;;;;;;12.52;5.50;;;;;;;1.31;59.04;98683.22;4466195;32;20096;-67
2023/04/06 06:58:23;;;;;;;15.57;7.18;;;;;;;1.16;58.12;98683.09;4467175;32;20100;-67
2023/04/06 07:00:50;;;;;;;13.07;6.00;;;;;;;1.36;59.89;98694.12;4467597;32;20584;-67
2023/04/06 07:03:18;;;;;;;9.55;5.85;;;;;;;1.28;58.58;98683.41;4465630;32;20131;-67
2023/04/06 07:05:49;;;;;;;9.80;5.53;;;;;;;1.34;58.51;98690.81;4465631;31;20116;-67
2023/04/06 07:08:17;;;;;;;10.63;5.82;;;;;;;1.23;59.17;98687.03;4466854;32;20093;-67
2023/04/06 07:10:44;;;;;;;11.82;6.18;;;;;;;1.30;59.18;98689.31;4466404;32;20124;-67
2023/04/06 07:13:20;;;;;;;15.07;7.05;;;;;;;1.36;58.34;98682.09;4463181;32;20138;-67
2023/04/06 07:15:49;;;;;;;14.50;6.78;;;;;;;1.78;59.34;98674.69;4466355;32;20160;-67
2023/04/06 07:18:17;;;;;;;16.20;7.78;;;;;;;1.57;58.88;98674.91;4466974;32;20126;-66
2023/04/06 07:20:45;;;;;;;17.05;7.00;;;;;;;1.69;59.79;98675.19;4467905;32;20122;-67
2023/04/06 07:23:12;;;;;;;16.02;6.70;;;;;;;1.98;58.92;98683.91;4466653;32;20167;-67
2023/04/06 07:25:40;;;;;;;15.77;7.47;;;;;;;1.94;59.45;98674.69;4449151;32;20444;-67
2023/04/06 07:28:09;;;;;;;17.73;7.28;;;;;;;2.17;58.73;98678.56;4464168;32;20094;-67
2023/04/06 07:30:37;;;;;;;14.63;6.25;;;;;;;2.25;58.73;98678.94;4465982;32;20077;-67
2023/04/06 07:33:05;;;;;;;11.73;6.20;;;;;;;2.20;57.41;98669.81;4465736;32;20171;-67
2023/04/06 07:35:36;;;;;;;13.00;7.00;;;;;;;2.20;58.99;98674.97;4466842;32;20084;-67
2023/04/06 07:38:04;;;;;;;11.90;6.37;;;;;;;2.05;58.24;98671.50;4463101;32;20179;-67
2023/04/06 07:40:32;;;;;;;11.95;6.82;;;;;;;2.31;58.69;98660.50;4464150;32;20545;-67
2023/04/06 07:42:59;;;;;;;15.88;7.78;;;;;;;2.43;58.57;98668.47;4466366;32;20116;-67
2023/04/06 07:45:27;;;;;;;13.18;7.03;;;;;;;2.34;58.01;98669.00;4467617;32;20529;-67
2023/04/06 07:47:55;;;;;;;16.67;7.03;;;;;;;2.39;58.32;98665.25;4468526;32;20492;-67
2023/04/06 07:50:23;;;;;;;17.60;6.37;;;;;;;2.42;58.89;98661.63;4468553;32;20206;-67
2023/04/06 07:52:51;;;;;;;12.63;6.15;;;;;;;2.60;56.50;98668.31;4468420;32;20470;-67
2023/04/06 07:55:19;;;;;;;18.95;8.18;;;;;;;2.94;56.04;98657.78;4468858;32;20114;-67
2023/04/06 07:57:46;;;;;;;13.65;6.47;;;;;;;3.02;55.83;98660.72;4463794;32;20894;-67
2023/04/06 08:00:14;;;;;;;14.60;6.18;;;;;;;3.29;53.67;98658.22;4466383;32;20108;-67
2023/04/06 08:02:41;;;;;;;10.07;5.80;;;;;;;3.56;54.07;98662.63;4468969;32;20215;-67
2023/04/06 08:05:09;;;;;;;17.52;6.87;;;;;;;3.67;52.68;98656.78;4468088;32;20122;-67
2023/04/06 08:07:36;;;;;;;12.05;6.87;;;;;;;3.40;53.24;98659.31;4467164;32;20092;-67
2023/04/06 08:10:04;;;;;;;11.82;6.70;;;;;;;3.89;53.23;98658.81;4467512;32;20126;-67
2023/04/06 08:12:32;;;;;;;17.27;7.07;;;;;;;3.64;51.91;98662.97;4468604;32;20139;-67
2023/04/06 08:15:00;;;;;;;19.77;7.55;;;;;;;3.76;51.73;98656.19;4468508;32;20625;-67
2023/04/06 08:17:30;;;;;;;14.55;7.18;;;;;;;4.05;52.09;98648.31;4468561;32;20152;-67
2023/04/06 08:19:57;;;;;;;15.65;6.30;;;;;;;3.86;51.76;98654.69;4467763;32;20385;-67
2023/04/06 08:22:24;;;;;;;13.13;6.95;;;;;;;4.06;51.98;98652.59;4468677;32;20187;-67
2023/04/06 08:24:52;;;;;;;16.95;6.87;;;;;;;4.26;51.80;98644.31;4468122;32;20119;-67
2023/04/06 08:27:19;;;;;;;14.05;6.80;;;;;;;4.46;50.51;98642.19;4468431;32;20164;-67
2023/04/06 08:29:49;;;;;;;15.48;5.95;;;;;;;4.52;50.82;98646.97;4468368;32;20085;-67
2023/04/06 08:32:17;;;;;;;16.85;6.87;;;;;;;4.73;49.99;98643.87;4468278;32;20110;-67
2023/04/06 08:34:44;;;;;;;10.30;5.65;;;;;;;5.20;48.26;98644.16;4468558;32;20119;-67
2023/04/06 08:37:11;;;;;;;21.25;6.90;;;;;;;4.79;47.62;98646.88;4467520;32;20149;-67
2023/04/06 08:39:38;;;;;;;16.73;5.75;;;;;;;4.69;48.70;98632.03;4467725;32;20093;-67
2023/04/06 08:42:12;;;;;;;17.00;6.78;;;;;;;4.46;48.69;98636.19;4468245;32;20517;-67
2023/04/06 08:44:41;;;;;;;10.70;6.22;;;;;;;4.70;50.59;98631.94;4468100;32;20096;-67
2023/04/06 08:47:09;;;;;;;10.65;5.80;;;;;;;4.97;48.21;98636.19;4468098;32;20125;-67
2023/04/06 08:49:37;;;;;;;11.35;5.50;;;;;;;4.85;47.16;98629.25;4467983;32;20122;-67
2023/04/06 08:52:10;;;;;;;9.30;5.90;;;;;;;4.77;47.59;98625.41;4468145;32;20101;-67
2023/04/06 08:54:38;;;;;;;9.10;4.55;;;;;;;4.47;47.93;98625.69;4468212;32;20096;-67
2023/04/06 08:57:07;;;;;;;13.68;5.80;;;;;;;5.06;47.44;98622.59;4467808;32;20123;-67
2023/04/06 08:59:36;;;;;;;11.90;6.32;;;;;;;4.98;46.77;98617.91;4466625;32;20598;-66
2023/04/06 09:02:07;;;;;;;10.75;5.68;;;;;;;4.96;46.55;98624.97;4466844;32;20154;-67
2023/04/06 09:04:35;;;;;;;16.17;5.75;;;;;;;4.96;46.68;98609.38;4466881;32;20088;-67
2023/04/06 09:07:03;;;;;;;8.93;4.95;;;;;;;5.51;46.91;98614.25;4455563;32;20114;-66
2023/04/06 09:09:30;;;;;;;11.50;5.22;;;;;;;5.23;45.08;98611.00;4461549;32;20114;-67
2023/04/06 09:12:05;;;;;;;13.40;5.62;;;;;;;5.30;45.11;98607.06;4460456;32;20097;-67
2023/04/06 09:14:37;;;;;;;14.73;5.57;;;;;;;5.42;45.57;98613.16;4468290;32;20104;-68
2023/04/06 09:17:05;;;;;;;6.62;4.25;;;;;;;5.30;45.24;98609.66;4455267;32;20134;-67
2023/04/06 09:19:33;;;;;;;11.18;5.43;;;;;;;5.25;44.38;98609.13;4467890;32;20100;-68
2023/04/06 09:22:09;;;;;;;11.35;5.65;;;;;;;5.30;46.00;98611.44;4468766;32;20158;-68
2023/04/06 09:24:42;;;;;;;9.20;5.40;;;;;;;5.75;45.09;98598.69;4468806;32;20081;-68
2023/04/06 09:27:11;;;;;;;10.67;4.60;;;;;;;5.89;44.23;98600.31;4457534;32;20597;-67
2023/04/06 09:29:38;;;;;;;10.30;4.70;;;;;;;5.62;44.36;98590.97;4466728;32;20900;-67
2023/04/06 09:32:07;;;;;;;9.25;5.05;;;;;;;5.91;43.72;98589.78;4479794;32;20092;-67
2023/04/06 09:34:35;;;;;;;9.13;4.28;;;;;;;5.66;42.89;98587.19;4470758;31;20160;-68
2023/04/06 09:37:12;;;;;;;9.88;5.05;;;;;;;5.95;42.56;98592.06;4479076;32;20100;-65
2023/04/06 09:39:40;;;;;;;11.52;4.90;;;;;;;6.39;43.11;98589.75;4470076;32;20164;-67
2023/04/06 09:42:08;;;;;;;8.52;4.28;;;;;;;6.06;41.87;98590.44;4466073;32;20234;-67
2023/04/06 09:44:35;;;;;;;6.35;4.07;;;;;;;6.32;42.53;98589.34;4470426;32;20115;-67
2023/04/06 09:47:06;;;;;;;8.30;4.07;;;;;;;6.18;41.05;98586.97;4470112;32;20107;-67
2023/04/06 09:49:35;;;;;;;6.87;3.75;;;;;;;6.13;41.75;98576.06;4468225;32;20477;-66
2023/04/06 09:52:03;;;;;;;11.05;4.82;;;;;;;6.01;41.50;98575.19;4475557;32;20149;-65
2023/04/06 09:54:32;;;;;;;8.93;4.53;;;;;;;6.15;42.27;98575.00;4475538;31;20116;-66
2023/04/06 09:57:22;;;;;;;7.30;4.07;;;;;;;6.06;41.04;98578.28;4478688;32;20123;-65
2023/04/06 10:00:12;;;;;;;8.98;4.93;;;;;;;6.06;41.58;98569.66;4470252;31;20100;-65
2023/04/06 10:02:55;;;;;;;12.43;4.47;;;;;;;6.26;41.70;98589.81;4466948;32;20158;-65
2023/04/06 10:05:25;;;;;;;7.30;4.28;;;;;;;6.40;41.94;98570.56;4466576;32;20124;-67
2023/04/06 10:07:54;;;;;;;9.45;4.22;;;;;;;6.26;41.59;98571.59;4468975;32;20127;-67
2023/04/06 10:10:30;;;;;;;;;;;;;;;6.50;40.45;98581.94;4468386;32;20089;-66
2023/04/06 10:12:58;;;;;;;6.97;3.90;;;;;;;6.57;41.86;98583.16;4468670;32;20019;-68
2023/04/06 10:15:27;;;;;;;11.20;5.55;;;;;;;6.74;39.96;98581.84;4462386;32;20108;-68
2023/04/06 10:17:54;;;;;;;13.65;5.60;;;;;;;6.37;40.29;98581.22;4476584;32;20536;-67
2023/04/06 10:20:29;;;;;;;8.23;4.40;;;;;;;6.58;41.83;98578.75;4470532;32;20119;-67
2023/04/06 10:23:01;;;;;;;10.30;4.65;;;;;;;6.63;41.43;98558.44;4469999;32;20109;-65
2023/04/06 10:25:31;;;;;;;8.00;4.82;;;;;;;6.86;40.80;98559.25;4469025;32;20100;-67
2023/04/06 10:28:06;;;;;;;8.57;4.32;;;;;;;6.90;40.38;98557.22;4469834;32;20134;-67
2023/04/06 10:30:34;;;;;;;7.43;4.78;;;;;;;7.07;40.92;98559.38;4468534;32;20164;-67
2023/04/06 10:33:15;;;;;;;9.18;5.18;;;;;;;6.95;40.22;98554.28;4470734;32;20096;-66
2023/04/06 10:35:44;;;;;;;14.07;7.40;;;;;;;7.38;41.16;98548.31;4470156;32;20150;-67
2023/04/06 10:38:13;;;;;;;11.05;6.50;;;;;;;7.14;39.13;98545.87;4469358;32;20084;-67
2023/04/06 10:40:46;;;;;;;8.45;3.78;;;;;;;6.84;39.63;98553.31;4469573;32;20127;-67
2023/04/06 10:43:19;;;;;;;13.82;6.12;;;;;;;7.37;39.24;98554.44;4466983;32;20169;-67
2023/04/06 10:45:57;;;;;;;7.82;4.47;;;;;;;7.50;39.53;98555.13;4473832;32;20087;-67
2023/04/06 10:48:26;;;;;;;16.08;6.32;;;;;;;7.51;39.81;98555.94;4480528;32;20155;-67
2023/04/06 10:50:53;;;;;;;9.38;4.47;;;;;;;7.35;38.93;98545.94;4470283;32;20131;-67
2023/04/06 10:53:27;;;;;;;8.52;5.30;;;;;;;7.46;39.24;98546.75;4469254;32;20148;-67
2023/04/06 10:55:56;;;;;;;8.75;4.57;;;;;;;7.48;38.93;98538.81;4465208;32;20140;-67
2023/04/06 10:58:27;;;;;;;11.95;5.70;;;;;;;7.15;39.32;98531.91;4468666;31;20169;-67
2023/04/06 11:00:55;;;;;;;12.68;5.97;;;;;;;7.58;39.09;98538.88;4475377;32;20096;-67
2023/04/06 11:03:23;;;;;;;9.40;4.95;;;;;;;7.44;38.67;98534.78;4471540;32;20100;-67
2023/04/06 11:05:51;;;;;;;10.30;5.18;;;;;;;7.59;38.58;98541.34;4469342;32;20113;-67
2023/04/06 11:08:26;;;;;;;9.05;4.05;;;;;;;7.71;38.52;98531.72;4472233;32;20124;-67
2023/04/06 11:11:07;;;;;;;10.38;4.35;;;;;;;7.64;37.24;98530.56;4476453;32;20084;-67
2023/04/06 11:13:42;;;;;;;8.55;4.35;;;;;;;7.53;37.60;98530.63;4475453;32;20119;-67
2023/04/06 11:16:24;;;;;;;11.85;5.55;;;;;;;7.80;37.38;98520.53;4484442;32;20097;-67
2023/04/06 11:18:59;;;;;;;10.07;6.35;;;;;;;8.30;38.43;98532.97;4484651;32;20432;-67
2023/04/06 11:21:41;;;;;;;10.38;5.45;;;;;;;8.12;39.49;98530.09;4483773;32;20434;-67
2023/04/06 11:24:10;;;;;;;8.68;5.40;;;;;;;8.16;39.38;98522.81;4469399;31;20116;-67
2023/04/06 11:26:43;;;;;;;8.60;5.65;;;;;;;8.11;37.76;98541.47;4467316;32;20143;-67
2023/04/06 11:29:12;;;;;;;10.70;6.10;;;;;;;8.11;38.47;98520.59;4481177;32;20371;-67
2023/04/06 11:31:41;;;;;;;10.05;6.25;;;;;;;7.82;39.00;98529.06;4484473;31;20474;-67
2023/04/06 11:34:24;;;;;;;12.85;5.85;;;;;;;7.83;39.25;98516.88;4482848;31;20162;-67
2023/04/06 11:36:59;;;;;;;10.85;5.68;;;;;;;8.09;39.27;98513.88;4480292;31;20089;-67
2023/04/06 11:39:28;;;;;;;13.52;6.03;;;;;;;8.23;40.08;98512.72;4478398;32;20151;-67